sensor_id;sensor_type;location;lat;lon;timestamp;temperature;humidity
52903;DHT22;38765;53.176;7.090;2022-07-31T00:00:05;19.00;99.90
52903;DHT22;38765;53.176;7.090;2022-07-31T00:02:31;19.00;99.90
52903;DHT22;38765;53.176;7.090;2022-07-31T00:04:59;19.00;99.90
52903;DHT22;38765;53.176;7.090;2022-07-31T00:07:25;18.90;99.90
52903;DHT22;38765;53.176;7.090;2022-07-31T00:09:50;18.90;99.90
52903;DHT22;38765;53.176;7.090;2022-07-31T00:12:16;18.90;99.90
52903;DHT22;38765;53.176;7.090;2022-07-31T00:14:47;18.90;99.90
52903;DHT22;38765;53.176;7.090;2022-07-31T00:17:15;18.90;99.90
52903;DHT22;38765;53.176;7.090;2022-07-31T00:19:41;18.80;99.90
52903;DHT22;38765;53.176;7.090;2022-07-31T00:22:32;18.80;99.90
52903;DHT22;38765;53.176;7.090;2022-07-31T00:24:58;18.80;99.90
52903;DHT22;38765;53.176;7.090;2022-07-31T00:27:23;18.80;99.90
52903;DHT22;38765;53.176;7.090;2022-07-31T00:30:07;18.80;99.90
52903;DHT22;38765;53.176;7.090;2022-07-31T00:32:46;18.80;99.90
52903;DHT22;38765;53.176;7.090;2022-07-31T00:35:12;18.60;99.90
52903;DHT22;38765;53.176;7.090;2022-07-31T00:38:12;18.80;99.90
52903;DHT22;38765;53.176;7.090;2022-07-31T00:40:43;18.80;99.90
52903;DHT22;38765;53.176;7.090;2022-07-31T00:43:12;18.70;99.90
52903;DHT22;38765;53.176;7.090;2022-07-31T00:45:38;18.70;99.90
52903;DHT22;38765;53.176;7.090;2022-07-31T00:48:17;18.70;99.90
52903;DHT22;38765;53.176;7.090;2022-07-31T00:50:45;18.70;99.90
52903;DHT22;38765;53.176;7.090;2022-07-31T00:53:13;18.70;99.90
52903;DHT22;38765;53.176;7.090;2022-07-31T00:55:39;18.70;99.90
52903;DHT22;38765;53.176;7.090;2022-07-31T01:01:08;18.70;99.90
52903;DHT22;38765;53.176;7.090;2022-07-31T01:03:34;18.70;99.90
52903;DHT22;38765;53.176;7.090;2022-07-31T01:06:16;18.70;99.90
52903;DHT22;38765;53.176;7.090;2022-07-31T01:08:49;18.70;99.90
52903;DHT22;38765;53.176;7.090;2022-07-31T01:11:25;18.70;99.90
52903;DHT22;38765;53.176;7.090;2022-07-31T01:13:57;18.70;99.90
52903;DHT22;38765;53.176;7.090;2022-07-31T01:16:25;18.60;99.90
52903;DHT22;38765;53.176;7.090;2022-07-31T01:18:55;18.60;99.90
52903;DHT22;38765;53.176;7.090;2022-07-31T01:21:34;18.60;99.90
52903;DHT22;38765;53.176;7.090;2022-07-31T01:26:53;18.60;99.90
52903;DHT22;38765;53.176;7.090;2022-07-31T01:29:43;18.60;99.90
52903;DHT22;38765;53.176;7.090;2022-07-31T01:32:15;18.60;99.90
52903;DHT22;38765;53.176;7.090;2022-07-31T01:34:56;18.60;99.90
52903;DHT22;38765;53.176;7.090;2022-07-31T01:40:31;18.50;99.90
52903;DHT22;38765;53.176;7.090;2022-07-31T01:43:10;18.40;99.90
52903;DHT22;38765;53.176;7.090;2022-07-31T01:45:40;18.50;99.90
52903;DHT22;38765;53.176;7.090;2022-07-31T01:48:13;18.40;99.90
52903;DHT22;38765;53.176;7.090;2022-07-31T01:50:42;18.40;99.90
52903;DHT22;38765;53.176;7.090;2022-07-31T01:53:12;18.40;99.90
52903;DHT22;38765;53.176;7.090;2022-07-31T01:55:41;18.40;99.90
52903;DHT22;38765;53.176;7.090;2022-07-31T01:58:12;18.40;99.90
52903;DHT22;38765;53.176;7.090;2022-07-31T02:00:38;18.30;99.90
52903;DHT22;38765;53.176;7.090;2022-07-31T02:03:04;18.00;99.90
52903;DHT22;38765;53.176;7.090;2022-07-31T02:05:50;18.30;99.90
52903;DHT22;38765;53.176;7.090;2022-07-31T02:08:25;18.30;99.90
52903;DHT22;38765;53.176;7.090;2022-07-31T02:10:54;18.20;99.90
52903;DHT22;38765;53.176;7.090;2022-07-31T02:13:20;18.20;99.90
52903;DHT22;38765;53.176;7.090;2022-07-31T02:15:49;18.10;99.90
52903;DHT22;38765;53.176;7.090;2022-07-31T02:18:21;18.10;99.90
52903;DHT22;38765;53.176;7.090;2022-07-31T02:21:07;18.10;99.90
52903;DHT22;38765;53.176;7.090;2022-07-31T02:23:35;18.00;99.90
52903;DHT22;38765;53.176;7.090;2022-07-31T02:26:14;18.00;99.90
52903;DHT22;38765;53.176;7.090;2022-07-31T02:29:10;18.00;99.90
52903;DHT22;38765;53.176;7.090;2022-07-31T02:31:35;18.00;99.90
52903;DHT22;38765;53.176;7.090;2022-07-31T02:34:04;17.90;99.90
52903;DHT22;38765;53.176;7.090;2022-07-31T02:36:46;18.00;99.90
52903;DHT22;38765;53.176;7.090;2022-07-31T02:39:23;18.00;99.90
52903;DHT22;38765;53.176;7.090;2022-07-31T02:41:50;18.00;99.90
52903;DHT22;38765;53.176;7.090;2022-07-31T02:44:18;18.00;99.90
52903;DHT22;38765;53.176;7.090;2022-07-31T02:46:44;18.00;99.90
52903;DHT22;38765;53.176;7.090;2022-07-31T02:49:30;18.00;99.90
52903;DHT22;38765;53.176;7.090;2022-07-31T02:51:58;18.00;99.90
52903;DHT22;38765;53.176;7.090;2022-07-31T02:54:43;18.00;99.90
52903;DHT22;38765;53.176;7.090;2022-07-31T02:57:09;18.00;99.90
52903;DHT22;38765;53.176;7.090;2022-07-31T02:59:38;17.50;99.90
52903;DHT22;38765;53.176;7.090;2022-07-31T03:02:08;17.70;99.90
52903;DHT22;38765;53.176;7.090;2022-07-31T03:04:34;17.90;99.90
52903;DHT22;38765;53.176;7.090;2022-07-31T03:09:49;17.90;99.90
52903;DHT22;38765;53.176;7.090;2022-07-31T03:12:20;17.90;99.90
52903;DHT22;38765;53.176;7.090;2022-07-31T03:15:07;17.90;99.90
52903;DHT22;38765;53.176;7.090;2022-07-31T03:17:44;17.90;99.90
52903;DHT22;38765;53.176;7.090;2022-07-31T03:20:35;17.90;99.90
52903;DHT22;38765;53.176;7.090;2022-07-31T03:23:04;17.90;99.90
52903;DHT22;38765;53.176;7.090;2022-07-31T03:25:32;17.90;99.90
52903;DHT22;38765;53.176;7.090;2022-07-31T03:28:03;17.90;99.90
52903;DHT22;38765;53.176;7.090;2022-07-31T03:30:50;17.90;99.90
52903;DHT22;38765;53.176;7.090;2022-07-31T03:33:22;17.90;99.90
52903;DHT22;38765;53.176;7.090;2022-07-31T03:35:56;17.90;99.90
52903;DHT22;38765;53.176;7.090;2022-07-31T03:38:23;17.90;99.90
52903;DHT22;38765;53.176;7.090;2022-07-31T03:41:00;17.80;99.90
52903;DHT22;38765;53.176;7.090;2022-07-31T03:43:38;17.80;99.90
52903;DHT22;38765;53.176;7.090;2022-07-31T03:46:13;17.80;99.90
52903;DHT22;38765;53.176;7.090;2022-07-31T03:48:48;17.80;99.90
52903;DHT22;38765;53.176;7.090;2022-07-31T03:51:16;17.50;99.90
52903;DHT22;38765;53.176;7.090;2022-07-31T03:53:42;17.80;99.90
52903;DHT22;38765;53.176;7.090;2022-07-31T03:56:11;17.70;99.90
52903;DHT22;38765;53.176;7.090;2022-07-31T03:58:53;17.80;99.90
52903;DHT22;38765;53.176;7.090;2022-07-31T04:01:22;17.80;99.90
52903;DHT22;38765;53.176;7.090;2022-07-31T04:03:48;17.70;99.90
52903;DHT22;38765;53.176;7.090;2022-07-31T04:33:36;17.70;99.90
52903;DHT22;38765;53.176;7.090;2022-07-31T04:36:08;17.70;99.90
52903;DHT22;38765;53.176;7.090;2022-07-31T04:38:33;17.70;99.90
52903;DHT22;38765;53.176;7.090;2022-07-31T04:54:23;17.80;99.90
52903;DHT22;38765;53.176;7.090;2022-07-31T04:57:29;17.80;99.90
52903;DHT22;38765;53.176;7.090;2022-07-31T04:59:58;17.90;99.90
52903;DHT22;38765;53.176;7.090;2022-07-31T05:14:16;18.20;99.90
52903;DHT22;38765;53.176;7.090;2022-07-31T05:16:53;18.20;99.90
52903;DHT22;38765;53.176;7.090;2022-07-31T05:19:22;18.20;99.90
52903;DHT22;38765;53.176;7.090;2022-07-31T05:21:57;18.50;99.90
52903;DHT22;38765;53.176;7.090;2022-07-31T05:27:28;18.60;99.90
52903;DHT22;38765;53.176;7.090;2022-07-31T05:30:14;18.60;99.90
52903;DHT22;38765;53.176;7.090;2022-07-31T05:32:59;18.60;99.90
52903;DHT22;38765;53.176;7.090;2022-07-31T05:35:50;18.70;99.90
52903;DHT22;38765;53.176;7.090;2022-07-31T05:38:16;18.70;99.90
52903;DHT22;38765;53.176;7.090;2022-07-31T05:40:47;18.70;99.90
52903;DHT22;38765;53.176;7.090;2022-07-31T05:43:30;18.70;99.90
52903;DHT22;38765;53.176;7.090;2022-07-31T05:46:08;18.80;99.90
52903;DHT22;38765;53.176;7.090;2022-07-31T05:48:44;18.90;99.90
52903;DHT22;38765;53.176;7.090;2022-07-31T05:51:16;18.90;99.90
52903;DHT22;38765;53.176;7.090;2022-07-31T05:57:00;19.00;99.90
52903;DHT22;38765;53.176;7.090;2022-07-31T05:59:29;19.00;99.90
52903;DHT22;38765;53.176;7.090;2022-07-31T06:01:59;19.50;99.90
52903;DHT22;38765;53.176;7.090;2022-07-31T06:04:32;19.10;99.90
52903;DHT22;38765;53.176;7.090;2022-07-31T06:07:00;19.10;99.90
52903;DHT22;38765;53.176;7.090;2022-07-31T06:09:26;19.50;99.90
52903;DHT22;38765;53.176;7.090;2022-07-31T06:11:52;19.20;99.90
52903;DHT22;38765;53.176;7.090;2022-07-31T06:14:17;19.30;99.90
52903;DHT22;38765;53.176;7.090;2022-07-31T06:16:43;19.30;99.90
52903;DHT22;38765;53.176;7.090;2022-07-31T06:19:27;19.40;99.90
52903;DHT22;38765;53.176;7.090;2022-07-31T06:21:58;19.40;99.90
52903;DHT22;38765;53.176;7.090;2022-07-31T06:24:26;19.60;99.90
52903;DHT22;38765;53.176;7.090;2022-07-31T06:26:55;19.40;99.90
52903;DHT22;38765;53.176;7.090;2022-07-31T06:29:21;19.40;99.90
52903;DHT22;38765;53.176;7.090;2022-07-31T06:31:47;19.40;99.90
52903;DHT22;38765;53.176;7.090;2022-07-31T06:34:13;19.50;99.90
52903;DHT22;38765;53.176;7.090;2022-07-31T06:36:38;19.50;99.90
52903;DHT22;38765;53.176;7.090;2022-07-31T06:39:04;19.50;99.90
52903;DHT22;38765;53.176;7.090;2022-07-31T06:41:32;19.50;99.90
52903;DHT22;38765;53.176;7.090;2022-07-31T06:44:13;19.50;99.90
52903;DHT22;38765;53.176;7.090;2022-07-31T06:46:39;19.60;99.90
52903;DHT22;38765;53.176;7.090;2022-07-31T06:49:05;19.60;99.90
52903;DHT22;38765;53.176;7.090;2022-07-31T06:51:33;19.60;99.90
52903;DHT22;38765;53.176;7.090;2022-07-31T06:54:03;19.70;99.90
52903;DHT22;38765;53.176;7.090;2022-07-31T06:56:30;19.70;99.90
52903;DHT22;38765;53.176;7.090;2022-07-31T06:58:56;19.80;99.90
52903;DHT22;38765;53.176;7.090;2022-07-31T07:01:24;19.80;99.90
52903;DHT22;38765;53.176;7.090;2022-07-31T07:03:50;19.90;99.90
52903;DHT22;38765;53.176;7.090;2022-07-31T07:06:16;19.90;99.90
52903;DHT22;38765;53.176;7.090;2022-07-31T07:08:41;19.90;99.90
52903;DHT22;38765;53.176;7.090;2022-07-31T07:11:07;20.00;99.90
52903;DHT22;38765;53.176;7.090;2022-07-31T07:13:33;20.00;99.90
52903;DHT22;38765;53.176;7.090;2022-07-31T07:15:58;20.10;99.90
52903;DHT22;38765;53.176;7.090;2022-07-31T07:18:24;20.10;99.90
52903;DHT22;38765;53.176;7.090;2022-07-31T07:20:50;20.20;99.90
52903;DHT22;38765;53.176;7.090;2022-07-31T07:23:16;20.20;99.90
52903;DHT22;38765;53.176;7.090;2022-07-31T07:25:42;20.30;99.90
52903;DHT22;38765;53.176;7.090;2022-07-31T07:28:13;20.30;99.90
52903;DHT22;38765;53.176;7.090;2022-07-31T07:30:39;20.40;99.90
52903;DHT22;38765;53.176;7.090;2022-07-31T07:33:05;20.50;99.90
52903;DHT22;38765;53.176;7.090;2022-07-31T07:35:30;20.50;99.90
52903;DHT22;38765;53.176;7.090;2022-07-31T07:37:56;20.50;99.90
52903;DHT22;38765;53.176;7.090;2022-07-31T07:40:22;20.60;99.90
52903;DHT22;38765;53.176;7.090;2022-07-31T07:42:49;20.60;99.90
52903;DHT22;38765;53.176;7.090;2022-07-31T07:45:14;20.70;99.90
52903;DHT22;38765;53.176;7.090;2022-07-31T07:47:40;20.70;99.90
52903;DHT22;38765;53.176;7.090;2022-07-31T07:50:06;20.70;99.90
52903;DHT22;38765;53.176;7.090;2022-07-31T07:52:32;20.80;99.90
52903;DHT22;38765;53.176;7.090;2022-07-31T07:54:58;20.80;99.90
52903;DHT22;38765;53.176;7.090;2022-07-31T07:57:23;20.80;99.90
52903;DHT22;38765;53.176;7.090;2022-07-31T07:59:49;20.90;99.90
52903;DHT22;38765;53.176;7.090;2022-07-31T08:02:17;20.90;99.90
52903;DHT22;38765;53.176;7.090;2022-07-31T08:04:45;20.90;99.90
52903;DHT22;38765;53.176;7.090;2022-07-31T08:07:11;21.00;99.90
52903;DHT22;38765;53.176;7.090;2022-07-31T08:09:36;21.10;99.90
52903;DHT22;38765;53.176;7.090;2022-07-31T08:12:02;21.00;99.90
52903;DHT22;38765;53.176;7.090;2022-07-31T08:14:28;21.00;99.90
52903;DHT22;38765;53.176;7.090;2022-07-31T08:16:54;21.00;99.90
52903;DHT22;38765;53.176;7.090;2022-07-31T08:19:20;21.10;99.90
52903;DHT22;38765;53.176;7.090;2022-07-31T08:21:46;21.10;99.90
52903;DHT22;38765;53.176;7.090;2022-07-31T08:24:12;21.20;99.90
52903;DHT22;38765;53.176;7.090;2022-07-31T08:26:38;21.20;99.90
52903;DHT22;38765;53.176;7.090;2022-07-31T08:29:22;21.20;99.90
52903;DHT22;38765;53.176;7.090;2022-07-31T08:31:50;21.20;99.90
52903;DHT22;38765;53.176;7.090;2022-07-31T08:34:16;21.20;99.90
52903;DHT22;38765;53.176;7.090;2022-07-31T08:36:42;21.20;99.90
52903;DHT22;38765;53.176;7.090;2022-07-31T08:39:08;21.20;99.90
52903;DHT22;38765;53.176;7.090;2022-07-31T08:41:35;21.20;99.90
52903;DHT22;38765;53.176;7.090;2022-07-31T08:44:06;21.20;99.90
52903;DHT22;38765;53.176;7.090;2022-07-31T08:46:33;21.30;99.90
52903;DHT22;38765;53.176;7.090;2022-07-31T08:49:00;21.40;99.90
52903;DHT22;38765;53.176;7.090;2022-07-31T08:51:28;21.50;99.90
52903;DHT22;38765;53.176;7.090;2022-07-31T08:53:59;21.60;99.90
52903;DHT22;38765;53.176;7.090;2022-07-31T08:56:28;21.70;99.90
52903;DHT22;38765;53.176;7.090;2022-07-31T08:58:56;21.80;99.90
52903;DHT22;38765;53.176;7.090;2022-07-31T09:01:21;21.90;99.90
52903;DHT22;38765;53.176;7.090;2022-07-31T09:03:47;22.10;99.90
52903;DHT22;38765;53.176;7.090;2022-07-31T09:06:13;22.20;99.90
52903;DHT22;38765;53.176;7.090;2022-07-31T09:08:41;22.20;99.90
52903;DHT22;38765;53.176;7.090;2022-07-31T09:11:07;22.30;99.90
52903;DHT22;38765;53.176;7.090;2022-07-31T09:13:33;22.40;99.90
52903;DHT22;38765;53.176;7.090;2022-07-31T09:15:59;22.50;99.90
52903;DHT22;38765;53.176;7.090;2022-07-31T09:18:25;22.60;99.90
52903;DHT22;38765;53.176;7.090;2022-07-31T09:23:22;22.70;99.90
52903;DHT22;38765;53.176;7.090;2022-07-31T09:25:58;22.70;99.90
52903;DHT22;38765;53.176;7.090;2022-07-31T09:28:58;22.70;99.90
52903;DHT22;38765;53.176;7.090;2022-07-31T09:31:18;22.60;99.90
52903;DHT22;38765;53.176;7.090;2022-07-31T09:33:44;22.50;99.90
52903;DHT22;38765;53.176;7.090;2022-07-31T09:36:20;22.40;99.90
52903;DHT22;38765;53.176;7.090;2022-07-31T09:38:46;22.20;99.90
52903;DHT22;38765;53.176;7.090;2022-07-31T09:41:14;22.20;99.90
52903;DHT22;38765;53.176;7.090;2022-07-31T09:43:39;22.10;99.90
52903;DHT22;38765;53.176;7.090;2022-07-31T09:46:06;22.00;99.90
52903;DHT22;38765;53.176;7.090;2022-07-31T09:48:32;21.90;99.90
52903;DHT22;38765;53.176;7.090;2022-07-31T09:51:00;21.80;99.90
52903;DHT22;38765;53.176;7.090;2022-07-31T09:53:26;21.70;99.90
52903;DHT22;38765;53.176;7.090;2022-07-31T09:55:52;21.60;99.90
52903;DHT22;38765;53.176;7.090;2022-07-31T09:58:18;21.60;99.90
52903;DHT22;38765;53.176;7.090;2022-07-31T10:00:48;21.50;99.90
52903;DHT22;38765;53.176;7.090;2022-07-31T10:03:14;21.40;99.90
52903;DHT22;38765;53.176;7.090;2022-07-31T10:05:46;21.40;99.90
52903;DHT22;38765;53.176;7.090;2022-07-31T10:08:12;21.40;99.90
52903;DHT22;38765;53.176;7.090;2022-07-31T10:10:39;21.30;99.90
52903;DHT22;38765;53.176;7.090;2022-07-31T10:13:07;21.30;99.90
52903;DHT22;38765;53.176;7.090;2022-07-31T10:15:35;21.20;99.90
52903;DHT22;38765;53.176;7.090;2022-07-31T10:18:01;21.20;99.90
52903;DHT22;38765;53.176;7.090;2022-07-31T10:20:27;21.10;99.90
52903;DHT22;38765;53.176;7.090;2022-07-31T10:22:55;21.10;99.90
52903;DHT22;38765;53.176;7.090;2022-07-31T10:25:27;21.10;99.90
52903;DHT22;38765;53.176;7.090;2022-07-31T10:27:53;21.10;99.90
52903;DHT22;38765;53.176;7.090;2022-07-31T10:30:19;21.00;99.90
52903;DHT22;38765;53.176;7.090;2022-07-31T10:32:45;21.00;99.90
52903;DHT22;38765;53.176;7.090;2022-07-31T10:35:11;20.90;99.90
52903;DHT22;38765;53.176;7.090;2022-07-31T10:37:55;20.90;99.90
52903;DHT22;38765;53.176;7.090;2022-07-31T10:45:32;20.80;99.90
52903;DHT22;38765;53.176;7.090;2022-07-31T10:47:58;20.70;99.90
52903;DHT22;38765;53.176;7.090;2022-07-31T10:50:25;20.80;99.90
52903;DHT22;38765;53.176;7.090;2022-07-31T10:52:51;20.80;99.90
52903;DHT22;38765;53.176;7.090;2022-07-31T10:55:17;20.90;99.90
52903;DHT22;38765;53.176;7.090;2022-07-31T10:57:46;20.90;99.90
52903;DHT22;38765;53.176;7.090;2022-07-31T11:00:13;20.90;99.90
52903;DHT22;38765;53.176;7.090;2022-07-31T11:02:39;20.90;99.90
52903;DHT22;38765;53.176;7.090;2022-07-31T11:05:38;20.90;99.90
52903;DHT22;38765;53.176;7.090;2022-07-31T11:08:01;21.00;99.90
52903;DHT22;38765;53.176;7.090;2022-07-31T11:10:27;20.90;99.90
52903;DHT22;38765;53.176;7.090;2022-07-31T11:13:01;20.90;99.90
52903;DHT22;38765;53.176;7.090;2022-07-31T11:15:29;20.90;99.90
52903;DHT22;38765;53.176;7.090;2022-07-31T11:17:58;20.90;99.90
52903;DHT22;38765;53.176;7.090;2022-07-31T11:20:37;20.90;99.90
52903;DHT22;38765;53.176;7.090;2022-07-31T11:23:03;20.80;99.90
52903;DHT22;38765;53.176;7.090;2022-07-31T11:25:30;20.80;99.90
52903;DHT22;38765;53.176;7.090;2022-07-31T11:27:56;20.80;99.90
52903;DHT22;38765;53.176;7.090;2022-07-31T11:30:22;20.80;99.90
52903;DHT22;38765;53.176;7.090;2022-07-31T11:32:49;20.70;99.90
52903;DHT22;38765;53.176;7.090;2022-07-31T11:35:28;20.70;99.90
52903;DHT22;38765;53.176;7.090;2022-07-31T11:37:54;20.70;99.90
52903;DHT22;38765;53.176;7.090;2022-07-31T11:40:19;20.70;99.90
52903;DHT22;38765;53.176;7.090;2022-07-31T11:42:45;20.70;99.90
52903;DHT22;38765;53.176;7.090;2022-07-31T11:45:11;20.70;99.90
52903;DHT22;38765;53.176;7.090;2022-07-31T11:47:46;20.70;99.90
52903;DHT22;38765;53.176;7.090;2022-07-31T11:50:12;20.70;99.90
52903;DHT22;38765;53.176;7.090;2022-07-31T11:52:38;20.50;99.90
52903;DHT22;38765;53.176;7.090;2022-07-31T11:55:12;20.70;99.90
52903;DHT22;38765;53.176;7.090;2022-07-31T11:57:38;20.70;99.90
52903;DHT22;38765;53.176;7.090;2022-07-31T12:00:11;20.70;99.90
52903;DHT22;38765;53.176;7.090;2022-07-31T12:02:41;20.60;99.90
52903;DHT22;38765;53.176;7.090;2022-07-31T12:05:07;20.60;99.90
52903;DHT22;38765;53.176;7.090;2022-07-31T12:07:33;20.60;99.90
52903;DHT22;38765;53.176;7.090;2022-07-31T12:09:59;20.40;99.90
52903;DHT22;38765;53.176;7.090;2022-07-31T12:12:25;20.60;99.90
52903;DHT22;38765;53.176;7.090;2022-07-31T12:14:53;20.50;99.90
52903;DHT22;38765;53.176;7.090;2022-07-31T12:17:20;20.50;99.90
52903;DHT22;38765;53.176;7.090;2022-07-31T12:19:46;20.50;99.90
52903;DHT22;38765;53.176;7.090;2022-07-31T12:22:16;20.50;99.90
52903;DHT22;38765;53.176;7.090;2022-07-31T12:24:42;20.50;99.90
52903;DHT22;38765;53.176;7.090;2022-07-31T12:27:08;20.50;99.90
52903;DHT22;38765;53.176;7.090;2022-07-31T12:29:38;20.40;99.90
52903;DHT22;38765;53.176;7.090;2022-07-31T12:32:04;20.70;99.90
52903;DHT22;38765;53.176;7.090;2022-07-31T12:34:39;20.40;99.90
52903;DHT22;38765;53.176;7.090;2022-07-31T12:37:07;20.40;99.90
52903;DHT22;38765;53.176;7.090;2022-07-31T12:42:07;20.40;99.90
52903;DHT22;38765;53.176;7.090;2022-07-31T12:44:33;20.40;99.90
52903;DHT22;38765;53.176;7.090;2022-07-31T12:46:58;20.30;99.90
52903;DHT22;38765;53.176;7.090;2022-07-31T12:49:24;20.30;99.90
52903;DHT22;38765;53.176;7.090;2022-07-31T12:51:50;20.30;99.90
52903;DHT22;38765;53.176;7.090;2022-07-31T12:54:16;20.30;99.90
52903;DHT22;38765;53.176;7.090;2022-07-31T12:56:42;20.30;99.90
52903;DHT22;38765;53.176;7.090;2022-07-31T12:59:08;20.30;99.90
52903;DHT22;38765;53.176;7.090;2022-07-31T13:01:34;20.20;99.90
52903;DHT22;38765;53.176;7.090;2022-07-31T13:04:00;20.20;99.90
52903;DHT22;38765;53.176;7.090;2022-07-31T13:06:27;20.20;99.90
52903;DHT22;38765;53.176;7.090;2022-07-31T13:08:53;20.10;99.90
52903;DHT22;38765;53.176;7.090;2022-07-31T13:11:19;20.00;99.90
52903;DHT22;38765;53.176;7.090;2022-07-31T13:13:44;20.00;99.90
52903;DHT22;38765;53.176;7.090;2022-07-31T13:16:10;19.90;99.90
52903;DHT22;38765;53.176;7.090;2022-07-31T13:18:36;19.90;99.90
52903;DHT22;38765;53.176;7.090;2022-07-31T13:21:04;19.90;99.90
52903;DHT22;38765;53.176;7.090;2022-07-31T13:23:29;19.90;99.90
52903;DHT22;38765;53.176;7.090;2022-07-31T13:25:55;19.80;99.90
52903;DHT22;38765;53.176;7.090;2022-07-31T13:28:22;19.80;99.90
52903;DHT22;38765;53.176;7.090;2022-07-31T13:30:48;19.80;99.90
52903;DHT22;38765;53.176;7.090;2022-07-31T13:33:13;19.80;99.90
52903;DHT22;38765;53.176;7.090;2022-07-31T13:35:39;19.80;99.90
52903;DHT22;38765;53.176;7.090;2022-07-31T13:38:05;19.80;99.90
52903;DHT22;38765;53.176;7.090;2022-07-31T13:40:30;19.80;99.90
52903;DHT22;38765;53.176;7.090;2022-07-31T13:43:15;19.80;99.90
52903;DHT22;38765;53.176;7.090;2022-07-31T13:45:41;19.80;99.90
52903;DHT22;38765;53.176;7.090;2022-07-31T13:48:09;19.80;99.90
52903;DHT22;38765;53.176;7.090;2022-07-31T13:50:38;19.80;99.90
52903;DHT22;38765;53.176;7.090;2022-07-31T13:53:04;19.80;99.90
52903;DHT22;38765;53.176;7.090;2022-07-31T13:55:29;19.80;99.90
52903;DHT22;38765;53.176;7.090;2022-07-31T13:57:55;19.80;99.90
52903;DHT22;38765;53.176;7.090;2022-07-31T14:00:20;19.80;99.90
52903;DHT22;38765;53.176;7.090;2022-07-31T14:02:49;19.70;99.90
52903;DHT22;38765;53.176;7.090;2022-07-31T14:05:15;19.70;99.90
52903;DHT22;38765;53.176;7.090;2022-07-31T14:07:40;19.70;99.90
52903;DHT22;38765;53.176;7.090;2022-07-31T14:10:06;19.70;99.90
52903;DHT22;38765;53.176;7.090;2022-07-31T14:12:32;19.60;99.90
52903;DHT22;38765;53.176;7.090;2022-07-31T14:14:57;19.70;99.90
52903;DHT22;38765;53.176;7.090;2022-07-31T14:17:23;19.60;99.90
52903;DHT22;38765;53.176;7.090;2022-07-31T14:19:51;19.60;99.90
52903;DHT22;38765;53.176;7.090;2022-07-31T14:22:17;19.70;99.90
52903;DHT22;38765;53.176;7.090;2022-07-31T14:24:42;19.60;99.90
52903;DHT22;38765;53.176;7.090;2022-07-31T14:27:10;19.60;99.90
52903;DHT22;38765;53.176;7.090;2022-07-31T14:29:36;19.60;99.90
52903;DHT22;38765;53.176;7.090;2022-07-31T14:32:05;19.70;99.90
52903;DHT22;38765;53.176;7.090;2022-07-31T14:34:30;19.70;99.90
52903;DHT22;38765;53.176;7.090;2022-07-31T14:36:56;19.70;99.90
52903;DHT22;38765;53.176;7.090;2022-07-31T14:39:22;19.70;99.90
52903;DHT22;38765;53.176;7.090;2022-07-31T14:41:47;19.70;99.90
52903;DHT22;38765;53.176;7.090;2022-07-31T14:44:13;19.70;99.90
52903;DHT22;38765;53.176;7.090;2022-07-31T14:46:44;19.70;99.90
52903;DHT22;38765;53.176;7.090;2022-07-31T14:49:10;19.70;99.90
52903;DHT22;38765;53.176;7.090;2022-07-31T14:51:36;19.70;99.90
52903;DHT22;38765;53.176;7.090;2022-07-31T14:54:02;19.70;99.90
52903;DHT22;38765;53.176;7.090;2022-07-31T14:56:28;19.70;99.90
52903;DHT22;38765;53.176;7.090;2022-07-31T14:58:53;19.80;99.90
52903;DHT22;38765;53.176;7.090;2022-07-31T15:01:19;19.90;99.90
52903;DHT22;38765;53.176;7.090;2022-07-31T15:03:44;20.00;99.90
52903;DHT22;38765;53.176;7.090;2022-07-31T15:06:10;20.00;99.90
52903;DHT22;38765;53.176;7.090;2022-07-31T15:08:36;20.10;99.90
52903;DHT22;38765;53.176;7.090;2022-07-31T15:11:03;20.10;99.90
52903;DHT22;38765;53.176;7.090;2022-07-31T15:13:29;20.10;99.90
52903;DHT22;38765;53.176;7.090;2022-07-31T15:15:54;20.10;99.90
52903;DHT22;38765;53.176;7.090;2022-07-31T15:18:21;20.00;99.90
52903;DHT22;38765;53.176;7.090;2022-07-31T15:20:46;20.10;99.90
52903;DHT22;38765;53.176;7.090;2022-07-31T15:23:12;20.10;99.90
52903;DHT22;38765;53.176;7.090;2022-07-31T15:25:38;20.10;99.90
52903;DHT22;38765;53.176;7.090;2022-07-31T15:28:03;20.10;99.90
52903;DHT22;38765;53.176;7.090;2022-07-31T15:30:34;20.20;99.90
52903;DHT22;38765;53.176;7.090;2022-07-31T15:32:59;20.20;99.90
52903;DHT22;38765;53.176;7.090;2022-07-31T15:35:25;20.30;99.90
52903;DHT22;38765;53.176;7.090;2022-07-31T15:37:50;20.30;99.90
52903;DHT22;38765;53.176;7.090;2022-07-31T15:40:16;20.40;99.90
52903;DHT22;38765;53.176;7.090;2022-07-31T15:42:43;20.40;99.90
52903;DHT22;38765;53.176;7.090;2022-07-31T15:45:09;20.50;99.90
52903;DHT22;38765;53.176;7.090;2022-07-31T15:47:39;20.60;99.90
52903;DHT22;38765;53.176;7.090;2022-07-31T15:50:05;20.60;99.90
52903;DHT22;38765;53.176;7.090;2022-07-31T15:52:31;20.60;99.90
52903;DHT22;38765;53.176;7.090;2022-07-31T15:54:57;20.70;99.90
52903;DHT22;38765;53.176;7.090;2022-07-31T15:57:23;20.90;99.90
52903;DHT22;38765;53.176;7.090;2022-07-31T15:59:49;21.10;99.90
52903;DHT22;38765;53.176;7.090;2022-07-31T16:02:14;21.30;99.90
52903;DHT22;38765;53.176;7.090;2022-07-31T16:04:42;21.30;99.90
52903;DHT22;38765;53.176;7.090;2022-07-31T16:07:11;21.40;99.90
52903;DHT22;38765;53.176;7.090;2022-07-31T16:09:39;21.30;99.90
52903;DHT22;38765;53.176;7.090;2022-07-31T16:12:05;21.30;99.90
52903;DHT22;38765;53.176;7.090;2022-07-31T16:14:34;21.20;99.90
52903;DHT22;38765;53.176;7.090;2022-07-31T16:17:02;21.20;99.90
52903;DHT22;38765;53.176;7.090;2022-07-31T16:19:30;21.10;99.90
52903;DHT22;38765;53.176;7.090;2022-07-31T16:21:55;21.00;99.90
52903;DHT22;38765;53.176;7.090;2022-07-31T16:24:21;20.90;99.90
52903;DHT22;38765;53.176;7.090;2022-07-31T16:26:47;20.90;99.90
52903;DHT22;38765;53.176;7.090;2022-07-31T16:29:13;20.80;99.90
52903;DHT22;38765;53.176;7.090;2022-07-31T16:31:41;20.80;99.90
52903;DHT22;38765;53.176;7.090;2022-07-31T16:34:07;20.70;99.90
52903;DHT22;38765;53.176;7.090;2022-07-31T16:36:32;20.70;99.90
52903;DHT22;38765;53.176;7.090;2022-07-31T16:38:58;20.70;99.90
52903;DHT22;38765;53.176;7.090;2022-07-31T16:41:24;20.70;99.90
52903;DHT22;38765;53.176;7.090;2022-07-31T16:43:49;20.80;99.90
52903;DHT22;38765;53.176;7.090;2022-07-31T16:46:15;20.80;99.90
52903;DHT22;38765;53.176;7.090;2022-07-31T16:48:41;20.80;99.90
52903;DHT22;38765;53.176;7.090;2022-07-31T16:51:06;21.10;99.90
52903;DHT22;38765;53.176;7.090;2022-07-31T16:53:32;21.20;99.90
52903;DHT22;38765;53.176;7.090;2022-07-31T16:55:58;21.30;99.90
52903;DHT22;38765;53.176;7.090;2022-07-31T16:58:23;21.20;99.90
52903;DHT22;38765;53.176;7.090;2022-07-31T17:00:49;21.30;99.90